Riachinho, Brazil
Current Conditions -  °F | °C
As of 5:00 AM on Friday 19 Dec 2014 (Local Time) from SBIZ Reporting Station
Broken Clouds Broken Clouds  
Wind Chill: 77°   Ceiling: 10000
Heat Index: 78°   Visibility: 5mi
Dew Point: 75°   Wind: 2mph
Humidity: 94%   Direction: 80°E
Pressure: 29.8"   Gusts: NA
Location:  6.44°S, 48.14°W
Report Text: SBIZ 190800Z 08002KT 8000 FEW030 BKN100 25/24 Q1009
Loading
Personal Weather Stations






























Interactive Weather Map New forecast layout! Learn more

10-Day Weather Forecast

Advertisements
Track Severe Weather on mobile